Kanab, UT

5:54 PM MDT on May 22, 2015 (GMT -0600)
Cedar City Regional | | Change Station
CLOSE
Current Station
Airport
Location: Cedar City,
Elevation: 5620 ft
Nearby Weather Stations

Elev 5620 ft 37.70 °N, 113.10 °W | Updated 1 hour ago

Overcast
Overcast
47 °F
Feels Like 47 °F
N
8
Wind Variable Wind from South
Gusts 17 mph

Today
High -- | Low -- °F
--% Chance of Precip.
Yesterday
High -- | Low -- °F
Precip. -- in
6:15 AM 8:35 PM
Waxing Crescent, 25% visible
Pressure 29.87 in
Visibility 4.0 miles
Clouds Overcast 3300 ft
Dew Point 39 °F
Humidity 74%
Rainfall 0.06 in
Snow Depth Not available.
UV 2 out of 12
Pollen 5.20 out of 12
Air Quality Not available.
Flu Activity Sporadic
METAR KCDC 222253Z AUTO 18007G15KT 140V250 4SM -RA OVC033 08/04 A2996 RMK AO2 LTG DSNT N AND W RAB08 SLP115 P0006 T00830039

More Conditions Fewer Conditions

Pressure 29.87 in
Visibility 4.0 miles
Clouds Overcast 3300 ft
Dew Point 39 °F
Humidity 74%
Rainfall 0.06 in
Snow Depth Not available.
UV 2 out of 12
Pollen 5.20 out of 12
Air Quality Not available.
Flu Activity Sporadic
METAR KCDC 222253Z AUTO 18007G15KT 140V250 4SM -RA OVC033 08/04 A2996 RMK AO2 LTG DSNT N AND W RAB08 SLP115 P0006 T00830039

More Conditions Fewer Conditions

Nowcast | as of 3:55 PM MDT on May 22, 2015

Showers and thunderstorms will continue to develop and move slowly north across Utah into early evening. At 350 PM...the strongest activity was moving through the Cedar City area. Expect cloud to ground lightning...brief heavy rain...gusty winds and small hail with the strongest storms.

×

10-Day Weather Forecast

Almanac

Astronomy

May. 22, 2015 Rise Set
Actual Time
Civil Twilight
Nautical Twilight
Astronomical Twilight
Moon
Length of Visible Light
Length of Day
Tomorrow will be .
, % of the Moon is Illuminated

Today's Extremes

State Highs State Lows

Community

WunderPhotos

Upload Photos

1,823,335 photos uploaded!

WunderBlogs® & News

Nearby

Air Quality

  Air Quality AQ Index Pollutant
Not available.

Snow Depth

Station Depth Elevation

Earthquake Activity

City Distance Mag. Time & Date
Minimum magnitude displayed is 2.5.

Coastal Water Temperatures

Place Temperature

Stations

Nearby Weather Stations

Station Location Temp. Windchill Dew Point Humidity Wind Precip. Elev Updated Type